Wetterdaten der Wetterstation 31177 Harsum

Wetterdiagramm
Tabellarische Darstellung
Datum Temperatur Windchill Feuchte Luftdruck Windrichtung Windstärke Niederschlag
04.09.2015 12:02 17,5 °C 17,5 °C 56 % 1012,1 hPa 180 0.0 0 l/m²
04.09.2015 11:41 17,5 °C 17,5 °C 53 % 1012,1 hPa 248 0.0 0 l/m²
04.09.2015 11:21 18,7 °C 18,7 °C 47 % 1012,1 hPa 248 0.0 0 l/m²
04.09.2015 11:00 19,3 °C 19,3 °C 52 % 1012,1 hPa 270 0.1 0 l/m²
04.09.2015 10:40 17,3 °C 17,3 °C 61 % 1012,1 hPa 270 0.0 0 l/m²
04.09.2015 10:19 16,2 °C 16,2 °C 59 % 1012,1 hPa 248 0.0 0 l/m²
04.09.2015 09:58 18,7 °C 18,7 °C 69 % 1011,1 hPa 315 0.0 0 l/m²
04.09.2015 09:38 16,4 °C 16,4 °C 81 % 1012,0 hPa 270 0.0 0 l/m²
04.09.2015 09:17 12,4 °C 12,4 °C 87 % 1012,0 hPa 135 0.0 0 l/m²
04.09.2015 08:57 12,2 °C 12,2 °C 87 % 1011,1 hPa 293 0.0 0 l/m²
04.09.2015 08:36 12,2 °C 12,2 °C 88 % 1012,1 hPa 270 0.0 0 l/m²
04.09.2015 08:15 12,0 °C 12,0 °C 89 % 1012,0 hPa 248 0.0 0 l/m²
04.09.2015 07:54 11,9 °C 11,9 °C 89 % 1011,1 hPa 270 0.0 0 l/m²
04.09.2015 07:34 11,7 °C 11,7 °C 90 % 1011,1 hPa 315 0.0 0 l/m²
04.09.2015 07:13 11,6 °C 11,6 °C 90 % 1011,1 hPa 270 0.0 0 l/m²
04.09.2015 06:53 11,6 °C 11,6 °C 90 % 1011,1 hPa 248 0.0 0 l/m²
04.09.2015 06:32 11,6 °C 11,6 °C 90 % 1011,1 hPa 270 0.0 0 l/m²
04.09.2015 06:11 11,6 °C 11,6 °C 90 % 1011,1 hPa 270 0.0 0 l/m²
04.09.2015 05:50 11,6 °C 11,6 °C 90 % 1011,1 hPa 270 0.0 0 l/m²
04.09.2015 05:30 11,6 °C 11,6 °C 90 % 1011,1 hPa 293 0.0 0 l/m²
04.09.2015 05:09 11,7 °C 11,7 °C 91 % 1011,1 hPa 293 0.0 0 l/m²
04.09.2015 04:49 11,6 °C 11,6 °C 92 % 1011,1 hPa 270 0.0 0 l/m²
04.09.2015 04:28 11,4 °C 11,4 °C 92 % 1012,1 hPa 293 0.0 0 l/m²
04.09.2015 04:07 11,5 °C 11,5 °C 93 % 1011,1 hPa 270 0.0 0 l/m²
04.09.2015 03:47 11,6 °C 11,6 °C 94 % 1012,1 hPa 270 0.0 0 l/m²
Neue Wetterwarnung

Neue Niederschlagsmeldung
Neue Meldung
Regen Liveticker
    sehr starker Regen/Gewitter
    starker Regen/Gewitter
    mäßiger bis starker Regen
    mäßiger Regen
    leichter bis mäßiger Regen
    kein Regen